Air Navigation Services of Czech Republic  
Last data update:  22.04.2021 17:13:28 UTC česká verze
   METEO Page displayed:  22.04.2021 17:15:05 UTC  
vysvětlivky
METAR EDDB 221650Z 30018KT 9999 FEW048TCU 10/00 Q1019 TEMPO 29015G25KT=
METAR EDDC 221650Z 30013KT 270V330 CAVOK 08/M01 Q1020 NOSIG=
METAR EDDE 221650Z 34011KT CAVOK 09/M01 Q1022 NOSIG=
METAR EDDF 221650Z 32009KT 300V360 CAVOK 14/M02 Q1023 NOSIG=
METAR EDDM 221650Z 32010KT 290V350 CAVOK 13/M06 Q1020 NOSIG=
METAR EDDN 221650Z 33011KT CAVOK 12/M06 Q1021 NOSIG=
METAR EDDP 221650Z 31015KT CAVOK 10/M01 Q1021 TEMPO 30015G25KT=
METAR EDQM 221650Z 33008KT 290V020 CAVOK 07/M03 Q1021=
METAR EPBY 221700Z 31014KT 9999 FEW040 08/M05 Q1015=
METAR EPGD 221700Z 28016KT 9999 -SHRA FEW007 FEW013TCU BKN015 02/00 Q1012=
METAR EPKK 221700Z 28010KT CAVOK 10/M06 Q1016=
METAR EPKT 221700Z 32010KT CAVOK 09/M06 Q1016=
METAR EPLL 221700Z 33007KT 300V360 9999 FEW050CB 05/00 Q1017=
METAR EPPO 221700Z 27011KT 9999 SCT046TCU 08/00 Q1016=
METAR EPRZ 221700Z 25010KT 9999 FEW034 08/03 Q1016=
METAR EPWA 221700Z 26013KT CAVOK 07/00 Q1015 NOSIG=
METAR EPWR 221700Z 31010KT 9999 -SHRA SCT044CB 09/M03 Q1018=
METAR LHBP 221700Z 31012KT CAVOK 13/04 Q1016 NOSIG=
METAR LHSM 221645Z AUTO 02006KT 8000 NSC 12/08 Q1018=
METAR LKBC 221700Z AUTO 36006KT 290V040 9999 FEW072 BKN160 08/M02 Q1019=
METAR LKCV 221700Z 32013KT CAVOK 08/M03 Q1020 NOSIG RMK BLU BLU=
METAR LKKB 221700Z 31011KT 9999 FEW045 BKN180 09/M05 Q1020 NOSIG RMK BLU BLU=
METAR LKKU NIL
METAR LKKV 221700Z 30011KT CAVOK 07/M06 Q1020 RMK REG QNH 1015=
METAR LKLN 221700Z AUTO VRB05G15KT 9999 OVC190 12/M04 Q1020=
METAR LKMT 221700Z 04008KT 9999 SCT042 07/04 Q1018 NOSIG RMK REG QNH 1015=
METAR LKNA 221700Z 31016KT CAVOK 07/M05 Q1018 NOSIG RMK BLU BLU=
METAR LKPD 221700Z 32007KT CAVOK 09/M04 Q1020 NOSIG RMK BLU BLU=
METAR LKPJ 221700Z AUTO 29014KT 9999 SCT170 10/M02 Q1018=
METAR LKPR 221700Z 32011KT CAVOK 08/M04 Q1020 NOSIG RMK REG QNH 1015=
METAR LKTB 221700Z 30014KT CAVOK 10/M05 Q1018 NOSIG RMK REG QNH 1015=
METAR LKVO NIL
METAR LOWI 221650Z VRB04KT 9999 FEW040 SCT055 BKN080 12/04 Q1020 NOSIG=
METAR LOWL 221650Z 29014KT 9999 FEW060 13/M04 Q1019 NOSIG=
METAR LOWS 221650Z 20008KT 9999 FEW040 SCT050 10/06 Q1020 NOSIG=
METAR LOWW 221650Z 32009KT 9999 FEW030 12/01 Q1018 NOSIG=
METAR LZIB 221700Z 30007KT CAVOK 12/01 Q1018 NOSIG=
METAR LZKZ 221700Z 03012KT 9999 SCT045 07/04 Q1016=
METAR LZMC NIL
METAR LZPP 221700Z 35009KT CAVOK 11/M01 Q1017=
METAR LZSL NIL
METAR LZTT 221700Z 25011KT 9999 FEW020 BKN030 06/00 Q1015=
METAR LZZI 221700Z 07003KT 040V120 9999 SCT049 09/00 Q1017=